Oxon Hill, Maryland
Current Conditions -  °F | °C
As of 9:52 PM on Sunday 23 Nov 2014 (Local Time) from KDCA Reporting Station
Overcast Overcast  
Wind Chill: 54°   Ceiling: 1700
Heat Index: 54°   Visibility: 10mi
Dew Point: 48°   Wind: 8mph
Humidity: 80%   Direction: 130°SE
Pressure: 29.94"   Gusts: NA
Location:  38.82°N, 77°W
Report Text: KDCA 240252Z 13007KT 100V170 10SM SCT012 BKN017 OVC038 12/09 A2994 RMK AO2 RAB00E26 SLP139 P0001 60001 T01220089 58037
Loading
Personal Weather Stations






























Interactive Weather Map New forecast layout! Learn more

10-Day Weather Forecast

Advertisements
Track Severe Weather on mobile